Aviation Digital Data Service (ADDS)

Output produced by METARs form (2230 UTC 23 March 2019)
found at http://www.aviationweather.gov/metar/data/
 
Forecast for: LTBJ (IZMIR/ADNAN MEND, TR)
Text: TAF LTBJ 231640Z 2318/2418 36020G32KT CAVOK
Forecast period: 1800 UTC 23 March 2019 to 1800 UTC 24 March 2019
Forecast type: FROM: standard forecast or significant change
Winds: from the N (360 degrees) at 23 MPH (20 knots; 10.3 m/s)
gusting to 37 MPH (32 knots; 16.5 m/s)
Visibility: 6 or more miles 10+ km)
Ceiling: unknown
Clouds: missing
Weather: NSW  (no significant weather)
Text: TEMPO 2318/2322 02025G45KT
Forecast period: 1800 to 2200 UTC 23 March 2019
Forecast type: TEMPORARY: The following changes expected for less than half the time period
Winds: from the NNE (20 degrees) at 29 MPH (25 knots; 12.9 m/s)
gusting to 52 MPH (45 knots; 23.1 m/s)
Visibility: missing
Ceiling: unknown
Clouds: missing
Weather: no significant weather forecast for this period